TAF Text Data
IDs:
Format:
Raw Decoded Include METAR

Data at: 0530 UTC 30 Jun 2022

KECP 292340Z 3000/3024 VRB03KT P6SM VCTS SCT070CB
  FM300400 03002KT P6SM SCT250
  FM301400 08007KT 6SM SHRA VCTS SCT050CB SCT250
  PROB30 3018/3024 VRB05G15KT 4SM TSRA